createdAt,value
2023-09-13T00:04:42.990Z,48.39
2023-09-13T00:09:44.687Z,46.98
2023-09-13T00:14:48.764Z,46.42
2023-09-13T00:19:50.631Z,49.04
2023-09-13T00:24:52.264Z,48.61
2023-09-13T00:29:54.165Z,48.59
2023-09-13T00:34:55.795Z,46.54
2023-09-13T00:39:57.458Z,48.90
2023-09-13T00:44:59.141Z,47.50
2023-09-13T00:50:01.260Z,44.79
2023-09-13T00:55:05.663Z,45.74
2023-09-13T01:00:10.740Z,46.53
2023-09-13T01:05:15.246Z,48.19
2023-09-13T01:10:16.936Z,49.05
2023-09-13T01:15:18.808Z,47.36
2023-09-13T01:20:45.916Z,47.08
2023-09-13T01:26:08.736Z,48.43
2023-09-13T01:31:11.724Z,49.18
2023-09-13T01:36:13.802Z,48.40
2023-09-13T01:41:26.242Z,49.07
2023-09-13T01:46:36.501Z,49.87
2023-09-13T01:51:38.559Z,49.04
2023-09-13T01:56:40.223Z,53.58
2023-09-13T02:01:41.949Z,51.63
2023-09-13T02:06:43.751Z,51.51
2023-09-13T02:11:45.433Z,53.06
2023-09-13T02:16:47.145Z,52.38
2023-09-13T02:21:49.029Z,51.43
2023-09-13T02:26:56.065Z,51.24
2023-09-13T02:31:57.867Z,52.64
2023-09-13T02:36:59.820Z,52.87
2023-09-13T02:42:03.454Z,51.96
2023-09-13T02:47:05.372Z,53.02
2023-09-13T02:52:07.251Z,50.67
2023-09-13T02:57:09.202Z,49.62
2023-09-13T03:02:10.980Z,50.37
2023-09-13T03:07:12.652Z,50.78
2023-09-13T03:12:14.528Z,52.33
2023-09-13T03:17:16.237Z,51.90
2023-09-13T03:22:19.835Z,51.45
2023-09-13T03:27:21.520Z,51.71
2023-09-13T03:32:23.122Z,51.95
2023-09-13T03:37:24.956Z,51.44
2023-09-13T03:42:26.677Z,51.93
2023-09-13T03:47:28.312Z,49.42
2023-09-13T03:52:30.336Z,50.22
2023-09-13T03:57:31.944Z,51.94
2023-09-13T04:02:33.835Z,50.61
2023-09-13T04:07:35.566Z,51.91
2023-09-13T04:12:37.689Z,51.49
2023-09-13T04:17:39.399Z,49.53
2023-09-13T04:22:41.092Z,50.12
2023-09-13T04:27:46.395Z,48.33
2023-09-13T04:32:48.633Z,47.98
2023-09-13T04:37:50.362Z,45.81
2023-09-13T04:43:07.370Z,47.37
2023-09-13T04:48:09.163Z,46.99
2023-09-13T04:53:10.831Z,47.56
2023-09-13T04:58:12.668Z,48.12
2023-09-13T05:03:14.351Z,45.64
2023-09-13T05:08:16.746Z,45.63
2023-09-13T05:13:18.397Z,45.66
2023-09-13T05:18:20.232Z,47.02
2023-09-13T05:23:21.880Z,47.77
2023-09-13T05:28:23.908Z,48.53
2023-09-13T05:33:26.530Z,48.87
2023-09-13T05:38:28.198Z,49.25
2023-09-13T05:43:30.433Z,50.60
2023-09-13T05:48:32.595Z,48.54
2023-09-13T05:53:34.225Z,48.39
2023-09-13T05:58:35.852Z,50.92
2023-09-13T06:03:37.538Z,51.19
2023-09-13T06:08:39.142Z,50.75
2023-09-13T06:13:40.783Z,50.56
2023-09-13T06:18:42.454Z,51.57
2023-09-13T06:23:45.141Z,50.91
2023-09-13T06:28:47.286Z,49.63
2023-09-13T06:33:49.122Z,48.81
2023-09-13T06:38:51.535Z,48.36
2023-09-13T06:49:02.427Z,50.12
2023-09-13T06:54:06.063Z,49.08
2023-09-13T06:59:10.514Z,49.06
2023-09-13T07:04:18.288Z,47.29
2023-09-13T07:09:24.555Z,47.64
2023-09-13T07:14:26.220Z,51.15
2023-09-13T07:19:28.144Z,48.08
2023-09-13T07:24:30.282Z,49.36
2023-09-13T07:29:31.988Z,53.11
2023-09-13T07:34:33.797Z,47.95
2023-09-13T07:39:35.560Z,52.64
2023-09-13T07:44:37.281Z,52.42
2023-09-13T07:49:38.989Z,48.47
2023-09-13T07:54:40.790Z,47.57
2023-09-13T07:59:42.452Z,46.43
2023-09-13T08:04:44.183Z,47.79
2023-09-13T08:09:46.104Z,50.07
2023-09-13T08:14:47.811Z,47.43
2023-09-13T08:19:51.405Z,47.00
2023-09-13T08:24:53.455Z,48.52
2023-09-13T08:29:55.303Z,47.91
2023-09-13T08:34:57.310Z,47.55
2023-09-13T08:39:59.000Z,46.87
2023-09-13T08:45:01.202Z,47.30
2023-09-13T08:50:05.174Z,48.58
2023-09-13T08:55:08.530Z,47.85
2023-09-13T09:00:10.775Z,47.36
2023-09-13T09:05:13.941Z,47.73
2023-09-13T09:10:16.656Z,47.54
2023-09-13T09:15:19.802Z,47.15
2023-09-13T09:20:22.054Z,46.47
2023-09-13T09:25:25.940Z,45.78
2023-09-13T09:30:35.158Z,47.49
2023-09-13T09:35:37.726Z,47.29
2023-09-13T09:40:39.670Z,47.24
2023-09-13T09:45:41.777Z,48.11
2023-09-13T09:50:48.176Z,46.56
2023-09-13T09:55:51.673Z,48.77
2023-09-13T10:00:55.164Z,48.39
2023-09-13T10:06:14.894Z,47.07
2023-09-13T10:11:24.067Z,47.05
2023-09-13T10:16:30.349Z,46.83
2023-09-13T10:21:34.114Z,45.09
2023-09-13T10:26:36.593Z,45.76
2023-09-13T10:31:44.798Z,47.07
2023-09-13T10:36:52.527Z,46.17
2023-09-13T10:42:05.748Z,44.58
2023-09-13T10:47:09.247Z,44.56
2023-09-13T10:52:11.061Z,44.94
2023-09-13T10:57:16.292Z,42.93
2023-09-13T11:06:21.306Z,48.41
2023-09-13T11:11:26.160Z,48.73
2023-09-13T11:16:29.475Z,47.33
2023-09-13T11:21:47.592Z,47.35
2023-09-13T11:26:50.063Z,47.14
2023-09-13T11:32:02.241Z,47.84
2023-09-13T11:37:08.979Z,45.96
2023-09-13T11:42:21.008Z,46.68
2023-09-13T11:47:27.496Z,46.97
2023-09-13T11:53:00.634Z,47.37
2023-09-13T11:58:12.477Z,47.33
2023-09-13T12:03:34.971Z,48.58
2023-09-13T12:08:46.385Z,46.77
2023-09-13T12:14:06.947Z,47.23
2023-09-13T12:19:13.410Z,45.21
2023-09-13T12:24:24.869Z,46.95
2023-09-13T12:29:26.684Z,46.86
2023-09-13T12:34:28.574Z,48.55
2023-09-13T12:39:30.303Z,43.67
2023-09-13T12:44:33.733Z,43.93
2023-09-13T12:49:40.009Z,44.08
2023-09-13T12:54:43.548Z,44.54
2023-09-13T12:59:46.592Z,42.83
2023-09-13T13:04:48.460Z,44.17
2023-09-13T13:09:53.946Z,45.46
2023-09-13T13:14:55.859Z,43.88
2023-09-13T13:19:57.924Z,43.16
2023-09-13T13:24:59.808Z,43.82
2023-09-13T13:30:01.493Z,44.38
2023-09-13T13:35:05.253Z,42.47
2023-09-13T16:53:46.470Z,44.00
2023-09-13T16:58:48.099Z,44.51
2023-09-13T17:03:50.315Z,42.77
2023-09-13T17:08:52.384Z,41.20
2023-09-13T17:13:55.049Z,39.52
2023-09-13T17:18:56.706Z,42.40
2023-09-13T17:23:59.309Z,40.56
2023-09-13T17:29:00.942Z,42.22
2023-09-13T17:34:03.907Z,40.10
2023-09-13T17:39:09.518Z,40.16
2023-09-13T17:44:11.163Z,42.41
2023-09-13T17:49:14.530Z,41.75
2023-09-13T17:54:16.151Z,41.64
2023-09-13T17:59:17.764Z,42.23
2023-09-13T18:04:19.502Z,41.81
2023-09-13T18:09:21.414Z,40.41
2023-09-13T18:14:23.035Z,40.77
2023-09-13T18:19:25.460Z,40.31
2023-09-13T18:24:38.949Z,41.32
2023-09-13T18:29:45.104Z,41.96
2023-09-13T18:34:46.970Z,40.11
2023-09-13T18:39:48.889Z,41.40
2023-09-13T18:44:50.789Z,40.87
2023-09-13T18:49:53.133Z,43.68
2023-09-13T18:54:55.109Z,42.15
2023-09-13T18:59:57.427Z,42.33
2023-09-13T19:04:59.099Z,43.29
2023-09-13T19:10:01.905Z,43.55
2023-09-13T19:15:04.152Z,43.25
2023-09-13T19:20:09.418Z,42.49
2023-09-13T19:25:11.317Z,44.13
2023-09-13T19:30:13.287Z,43.61
2023-09-13T19:35:15.738Z,44.73
2023-09-13T19:40:17.915Z,43.89
2023-09-13T19:45:23.311Z,44.40
2023-09-13T19:50:25.097Z,44.14
2023-09-13T19:55:27.824Z,45.16
2023-09-13T20:00:30.603Z,46.54
2023-09-13T20:05:36.119Z,47.92
2023-09-13T20:10:37.797Z,48.33
2023-09-13T20:15:39.482Z,48.33
2023-09-13T20:20:41.240Z,46.77
2023-09-13T20:25:42.945Z,44.10
2023-09-13T20:30:44.700Z,43.23
2023-09-13T20:35:46.795Z,44.98
2023-09-13T20:40:48.443Z,45.33
2023-09-13T20:45:50.492Z,44.76
2023-09-13T20:50:55.454Z,45.75
2023-09-13T20:55:57.115Z,46.84
2023-09-13T21:00:59.658Z,45.89
2023-09-13T21:06:01.453Z,47.42
2023-09-13T21:11:06.437Z,49.07
2023-09-13T21:16:09.446Z,48.85
2023-09-13T21:21:11.242Z,45.49
2023-09-13T21:26:14.385Z,46.35
2023-09-13T21:31:19.585Z,48.15
2023-09-13T21:36:21.445Z,46.08
2023-09-13T21:41:23.098Z,44.71
2023-09-13T21:46:24.751Z,43.51
2023-09-13T21:51:26.639Z,43.57
2023-09-13T21:56:28.371Z,44.40
2023-09-13T22:01:30.979Z,45.20
2023-09-13T22:06:33.490Z,44.78
2023-09-13T22:11:35.336Z,45.21
2023-09-13T22:16:37.178Z,45.69
2023-09-13T22:21:38.950Z,44.28
2023-09-13T22:26:40.711Z,45.49
2023-09-13T22:31:42.570Z,45.23
2023-09-13T22:36:44.733Z,45.70
2023-09-13T22:41:46.470Z,44.67
2023-09-13T22:46:48.206Z,44.39
2023-09-13T22:51:50.258Z,45.36
2023-09-13T22:56:52.299Z,45.34
2023-09-13T23:01:54.374Z,45.02
2023-09-13T23:06:56.128Z,45.80
2023-09-13T23:11:57.775Z,45.85
2023-09-13T23:16:59.511Z,47.17
2023-09-13T23:22:01.174Z,45.47
2023-09-13T23:27:03.745Z,47.08
2023-09-13T23:32:06.193Z,46.01
2023-09-13T23:37:07.972Z,46.62
2023-09-13T23:42:09.681Z,48.03
2023-09-13T23:47:11.345Z,45.54
2023-09-13T23:52:13.684Z,46.97
2023-09-13T23:57:15.335Z,48.09
